Terminal Aerodrome Forecast
Issued by NWS

Home | Current Version | Previous Version | Text Only | Print | Product List | Glossary On
Versions: 1 2 3 4 5 6 7 8 9 10 11 12 13
093
FTUS45 KMSO 271720
TAFSMN
TAF
KSMN 271720Z 2718/2818 VRB04KT P6SM SCT080
     FM272000 01010KT P6SM VCSH BKN080
     FM272200 02010G15KT P6SM -SHRA BKN080
      TEMPO 2723/2802 04015G25KT 6SM -TSRA BKN050CB
     FM280300 VRB06KT P6SM -SHRA BKN050 OVC080
     FM280600 VRB03KT P6SM SCT080=

USA.gov is the U.S. government's official web portal to all federal, state and local government web resources and services.